Time;durP1;ratioP1;P1;durP2;ratioP2;P2;SDS_P1;SDS_P2;PMS_P1;PMS_P2;Temp;Humidity;BMP_temperature;BMP_pressure;BME280_temperature;BME280_humidity;BME280_pressure;Samples;Min_cycle;Max_cycle;Signal;HPM_P1;HPM_P2
2022/02/06 00:00:21;;;;;;;33.97;14.60;;;;;;;-7.45;100.00;99066.25;4928079;29;19975;-53
2022/02/06 00:03:06;;;;;;;38.80;15.13;;;;;;;-7.80;100.00;99005.72;4918169;29;20066;-58
2022/02/06 00:05:51;;;;;;;34.13;14.55;;;;;;;-7.35;100.00;99064.13;4929132;29;20091;-56
2022/02/06 00:08:38;;;;;;;30.90;14.63;;;;;;;-7.25;100.00;99057.59;4908718;29;20475;-55
2022/02/06 00:11:23;;;;;;;32.47;14.57;;;;;;;-7.20;100.00;99046.66;4912820;29;20150;-54
2022/02/06 00:14:08;;;;;;;31.23;14.18;;;;;;;-7.06;100.00;99044.59;4903867;29;20832;-54
2022/02/06 00:16:52;;;;;;;38.25;15.52;;;;;;;-7.16;100.00;99038.22;4915295;29;20584;-58
2022/02/06 00:19:43;;;;;;;29.63;14.88;;;;;;;-7.32;100.00;99033.31;4951735;28;20133;-51
2022/02/06 00:22:44;;;;;;;31.13;14.68;;;;;;;-7.51;100.00;99018.03;4973724;28;20092;-52
2022/02/06 00:25:49;;;;;;;38.08;16.42;;;;;;;-7.27;100.00;99025.78;4972976;28;20491;-54
2022/02/06 00:28:43;;;;;;;41.08;16.10;;;;;;;-7.05;100.00;99010.28;4954467;28;20053;-52
2022/02/06 00:31:48;;;;;;;32.53;16.40;;;;;;;-7.21;100.00;98996.00;4948476;28;20195;-52
2022/02/06 00:40:22;;;;;;;42.53;17.25;;;;;;;-7.16;100.00;99003.91;4970478;28;20079;-61
2022/02/06 00:43:07;;;;;;;37.22;16.48;;;;;;;-7.06;100.00;99004.28;4986261;28;20052;-63
2022/02/06 00:45:53;;;;;;;37.08;16.13;;;;;;;-6.95;100.00;98984.06;4985935;28;20056;-60
2022/02/06 00:48:42;;;;;;;34.08;16.13;;;;;;;-6.93;100.00;98988.44;4946573;28;20186;-58
2022/02/06 00:51:44;;;;;;;39.50;16.17;;;;;;;-6.98;100.00;98984.81;4955256;28;20081;-57
2022/02/06 00:54:29;;;;;;;36.92;16.63;;;;;;;-6.92;100.00;98973.88;4967881;28;20097;-56
2022/02/06 00:57:14;;;;;;;35.35;15.48;;;;;;;-6.79;100.00;98979.50;4984614;28;20057;-58
2022/02/06 00:59:58;;;;;;;38.92;16.23;;;;;;;-6.73;100.00;98977.13;4975767;28;20093;-53
2022/02/06 01:02:42;;;;;;;37.10;16.75;;;;;;;-7.00;100.00;98875.69;4986505;28;20126;-52
2022/02/06 01:05:27;;;;;;;31.55;15.80;;;;;;;-6.34;100.00;98981.03;4973731;28;20061;-53
2022/02/06 01:08:12;;;;;;;39.92;16.88;;;;;;;-6.25;100.00;98972.72;4980768;28;20117;-57
2022/02/06 01:10:56;;;;;;;36.30;16.70;;;;;;;-6.23;100.00;98956.47;4973120;28;20109;-56
2022/02/06 01:14:12;;;;;;;30.85;16.13;;;;;;;-6.22;100.00;98952.19;4978958;28;20125;-57
2022/02/06 01:16:58;;;;;;;31.52;15.80;;;;;;;-6.52;100.00;98894.50;4979593;28;20074;-56
2022/02/06 01:20:20;;;;;;;41.30;17.17;;;;;;;-6.29;100.00;98950.25;4978156;28;20049;-56
2022/02/06 01:22:59;;;;;;;33.83;16.58;;;;;;;-6.12;100.00;98951.66;4980322;28;20470;-59
2022/02/06 01:25:50;;;;;;;36.45;16.52;;;;;;;-6.18;100.00;98923.06;4952613;28;20049;-56
2022/02/06 01:28:43;;;;;;;33.00;15.18;;;;;;;-6.04;100.00;98942.47;4985624;28;20062;-63
2022/02/06 01:34:47;;;;;;;34.15;15.48;;;;;;;-6.12;100.00;98936.19;4973250;28;20081;-57
2022/02/06 01:37:45;;;;;;;33.67;16.75;;;;;;;-6.10;100.00;98909.59;4974390;28;20439;-52
2022/02/06 01:40:42;;;;;;;33.58;16.17;;;;;;;-5.92;100.00;98928.25;4978607;28;20121;-54
2022/02/06 01:43:36;;;;;;;29.80;14.60;;;;;;;-5.89;100.00;98928.31;4983523;28;20134;-57
2022/02/06 02:19:26;;;;;;;35.42;16.42;;;;;;;-5.94;100.00;98893.75;4984638;28;20100;-57
2022/02/06 02:28:23;;;;;;;37.30;15.75;;;;;;;-5.99;100.00;98879.84;4979641;28;20046;-57
2022/02/06 02:46:26;;;;;;;28.98;14.65;;;;;;;-5.95;100.00;98879.13;4908219;29;20098;-57
2022/02/06 02:49:16;;;;;;;28.27;14.93;;;;;;;-5.95;100.00;98865.34;4894600;29;20047;-53
2022/02/06 02:52:06;;;;;;;28.27;14.15;;;;;;;-6.02;100.00;98873.72;4907145;29;20092;-56
2022/02/06 02:54:59;;;;;;;35.30;15.27;;;;;;;-6.23;100.00;98862.75;4907296;29;20096;-63
2022/02/06 02:57:54;;;;;;;32.63;15.00;;;;;;;-5.97;100.00;98852.38;4906215;29;20453;-56
2022/02/06 03:03:39;;;;;;;29.02;15.40;;;;;;;-5.92;100.00;98850.84;4894196;29;20464;-56
2022/02/06 03:06:23;;;;;;;37.00;15.63;;;;;;;-6.07;100.00;98839.16;4892095;29;20128;-57
2022/02/06 03:09:08;;;;;;;29.37;14.63;;;;;;;-5.81;100.00;98853.72;4903770;29;20123;-60
2022/02/06 03:11:52;;;;;;;32.17;15.30;;;;;;;-5.77;100.00;98851.22;4903574;29;21117;-57
2022/02/06 03:14:46;;;;;;;32.05;15.27;;;;;;;-5.68;100.00;98842.88;4889518;29;20424;-55
2022/02/06 03:17:44;;;;;;;31.55;15.82;;;;;;;-5.63;100.00;98855.09;4905260;29;20131;-54
2022/02/06 03:20:29;;;;;;;29.80;15.50;;;;;;;-5.68;100.00;98850.63;4904526;29;20107;-54
2022/02/06 03:23:15;;;;;;;32.67;15.95;;;;;;;-5.86;100.00;98816.56;4924306;28;20101;-57
2022/02/06 03:26:00;;;;;;;32.28;15.68;;;;;;;-5.79;100.00;98837.41;4983270;28;20057;-56
2022/02/06 03:28:45;;;;;;;35.03;16.80;;;;;;;-5.80;100.00;98785.75;4992892;28;20104;-56
2022/02/06 03:31:29;;;;;;;33.67;15.60;;;;;;;-5.82;100.00;98821.88;4950604;28;20530;-56
2022/02/06 03:34:15;;;;;;;32.58;16.73;;;;;;;-5.92;100.00;98814.72;4980651;28;20133;-59
2022/02/06 03:37:02;;;;;;;33.35;15.73;;;;;;;-6.11;100.00;98768.56;4951671;28;20801;-56
2022/02/06 03:39:51;;;;;;;;;;;;;;;-5.56;100.00;98827.72;4979253;28;20045;-55
2022/02/06 03:42:51;;;;;;;35.00;15.52;;;;;;;-5.89;100.00;98838.00;4980519;28;20125;-57
2022/02/06 03:45:52;;;;;;;30.40;15.18;;;;;;;-5.86;100.00;98808.81;4950817;28;20368;-56
2022/02/06 03:51:34;;;;;;;29.50;15.45;;;;;;;-6.12;100.00;98777.16;4985633;28;20140;-55
2022/02/06 03:54:19;;;;;;;38.50;15.60;;;;;;;-5.58;100.00;98821.66;4983290;28;20053;-55
2022/02/06 03:57:04;;;;;;;30.23;15.50;;;;;;;-5.53;100.00;98822.66;4974944;28;20108;-52
2022/02/06 03:59:48;;;;;;;34.15;15.63;;;;;;;-5.59;100.00;98823.34;4971533;28;20487;-55
2022/02/06 04:02:33;;;;;;;35.55;15.85;;;;;;;-5.45;100.00;98831.47;4984546;28;20067;-55
2022/02/06 04:05:18;;;;;;;33.08;14.98;;;;;;;-5.52;100.00;98821.81;4983803;28;20109;-54
2022/02/06 04:08:07;;;;;;;35.47;15.30;;;;;;;-5.87;100.00;98751.19;4972622;28;20105;-53
2022/02/06 04:10:52;;;;;;;35.22;15.77;;;;;;;-5.60;100.00;98813.88;4988904;28;20518;-61
2022/02/06 04:13:52;;;;;;;35.75;16.38;;;;;;;-5.51;100.00;98816.69;4966584;28;20523;-58
2022/02/06 04:16:41;;;;;;;31.30;16.13;;;;;;;-5.59;100.00;98823.34;4960825;28;20065;-59
2022/02/06 04:19:26;;;;;;;33.28;15.30;;;;;;;-5.36;100.00;98819.69;4974472;28;20058;-59
2022/02/06 04:22:11;;;;;;;32.00;15.93;;;;;;;-5.40;100.00;98820.44;4979545;28;20094;-57
2022/02/06 04:24:56;;;;;;;32.67;15.55;;;;;;;-5.21;100.00;98820.06;4980806;28;20066;-55
2022/02/06 04:27:40;;;;;;;34.40;15.73;;;;;;;-5.41;100.00;98766.19;4988725;28;20065;-58
2022/02/06 04:30:25;;;;;;;32.90;15.35;;;;;;;-5.11;100.00;98813.44;4974081;28;20069;-58
2022/02/06 04:33:09;;;;;;;;;;;;;;;-5.04;100.00;98830.84;4976188;28;20430;-55
2022/02/06 04:35:58;;;;;;;35.17;16.02;;;;;;;-5.17;100.00;98826.22;4987501;28;19928;-58
2022/02/06 04:39:04;;;;;;;32.05;15.18;;;;;;;-5.12;100.00;98828.09;4984281;28;20053;-57
2022/02/06 04:45:49;;;;;;;31.30;15.48;;;;;;;-5.39;100.00;98831.63;4973497;28;20049;-51
2022/02/06 05:15:02;;;;;;;34.78;17.95;;;;;;;-5.52;100.00;98822.69;4972301;28;20587;-52
2022/02/06 05:20:57;;;;;;;32.17;15.95;;;;;;;-5.89;100.00;98814.78;4986287;28;20414;-63
2022/02/06 05:32:16;;;;;;;34.65;17.08;;;;;;;-5.55;100.00;98776.13;4972845;28;20076;-55
2022/02/06 05:35:02;;;;;;;36.40;16.42;;;;;;;-5.41;100.00;98813.50;4984914;28;20104;-53
2022/02/06 05:37:47;;;;;;;34.45;16.52;;;;;;;-5.55;100.00;98813.97;4957429;28;20193;-56
2022/02/06 05:40:32;;;;;;;34.63;17.15;;;;;;;-5.76;100.00;98811.69;4973470;28;20153;-54
2022/02/06 05:43:16;;;;;;;34.72;16.40;;;;;;;-5.84;100.00;98813.22;4982780;28;20140;-55
2022/02/06 05:46:01;;;;;;;33.25;16.08;;;;;;;-5.78;100.00;98804.72;4978147;28;20467;-52
2022/02/06 05:48:45;;;;;;;33.55;16.52;;;;;;;-6.07;100.00;98785.00;4986196;28;20394;-56
2022/02/06 05:51:30;;;;;;;36.80;16.20;;;;;;;-6.00;100.00;98805.88;4977322;28;20125;-53
2022/02/06 05:54:14;;;;;;;32.05;16.20;;;;;;;-5.98;100.00;98803.31;4974868;28;20062;-56
2022/02/06 05:57:00;;;;;;;37.03;17.10;;;;;;;-6.24;100.00;98804.28;4969576;28;20057;-56
2022/02/06 05:59:44;;;;;;;37.28;16.95;;;;;;;-6.11;100.00;98798.63;4975971;28;20049;-51
2022/02/06 06:02:29;;;;;;;;;;;;;;;-5.80;100.00;98808.97;4979971;28;20454;-56
2022/02/06 06:05:14;;;;;;;34.05;16.17;;;;;;;-6.05;100.00;98809.16;4982013;28;19925;-54
2022/02/06 06:07:58;;;;;;;32.53;16.48;;;;;;;-5.98;100.00;98811.06;4982935;28;20056;-53
2022/02/06 06:10:42;;;;;;;36.33;16.17;;;;;;;-6.15;100.00;98758.13;4978421;28;20120;-52
2022/02/06 06:13:28;;;;;;;30.63;15.20;;;;;;;-5.81;100.00;98787.47;4977421;28;20053;-58
2022/02/06 06:16:13;;;;;;;33.72;16.48;;;;;;;-5.80;100.00;98814.13;4986894;28;20470;-56
2022/02/06 06:18:57;;;;;;;30.10;15.90;;;;;;;-5.96;100.00;98819.72;4970009;28;20050;-57
2022/02/06 06:21:45;;;;;;;31.10;16.20;;;;;;;-5.98;100.00;98762.94;4953568;28;20139;-55
2022/02/06 06:24:30;;;;;;;34.90;16.30;;;;;;;-6.01;100.00;98811.00;4957260;28;20089;-53
2022/02/06 06:27:15;;;;;;;;;;;;;;;-5.73;100.00;98826.41;4997264;28;20117;-55
2022/02/06 06:29:59;;;;;;;36.92;16.13;;;;;;;-5.99;100.00;98822.22;4991632;28;19925;-54
2022/02/06 06:32:44;;;;;;;35.08;16.60;;;;;;;-6.11;100.00;98824.44;4980002;28;20057;-54
2022/02/06 06:35:30;;;;;;;28.77;15.70;;;;;;;-6.05;100.00;98799.69;4983372;28;20201;-63
2022/02/06 06:38:15;;;;;;;29.75;16.20;;;;;;;-6.03;100.00;98787.72;4985570;28;20052;-64
2022/02/06 06:40:59;;;;;;;38.95;16.90;;;;;;;-5.95;100.00;98813.72;4966526;28;20089;-54
2022/02/06 06:43:45;;;;;;;32.03;16.23;;;;;;;-5.67;100.00;98798.16;4986854;28;20109;-55
2022/02/06 06:46:29;;;;;;;34.60;16.67;;;;;;;-5.43;100.00;98806.56;4967791;28;20443;-61
2022/02/06 06:49:14;;;;;;;35.42;16.10;;;;;;;-5.38;100.00;98805.00;4971915;28;20046;-60
2022/02/06 06:51:59;;;;;;;36.30;16.77;;;;;;;-5.34;100.00;98807.69;4987018;28;20232;-55
2022/02/06 06:54:48;;;;;;;33.35;15.63;;;;;;;-5.40;100.00;98804.06;4966175;28;20110;-63
2022/02/06 06:57:41;;;;;;;34.83;16.80;;;;;;;-5.03;100.00;98814.50;4970362;28;20131;-61
2022/02/06 07:00:43;;;;;;;38.17;16.52;;;;;;;-5.82;100.00;98795.19;4956591;28;20174;-57
2022/02/06 07:03:29;;;;;;;34.78;16.35;;;;;;;-5.30;100.00;98803.50;4964149;28;20224;-61
2022/02/06 07:06:14;;;;;;;33.60;16.65;;;;;;;-5.07;100.00;98803.22;4981790;28;20682;-60
2022/02/06 07:08:58;;;;;;;38.28;15.82;;;;;;;-4.98;100.00;98795.69;4978197;28;20522;-54
2022/02/06 07:11:42;;;;;;;31.88;16.73;;;;;;;-5.19;100.00;98813.25;4968914;28;20959;-58
2022/02/06 07:14:27;;;;;;;37.10;16.30;;;;;;;-5.14;100.00;98808.22;4983591;28;20185;-59
2022/02/06 07:17:13;;;;;;;36.53;17.13;;;;;;;-5.07;100.00;98794.59;4976957;28;20050;-65
2022/02/06 07:19:57;;;;;;;29.92;15.48;;;;;;;-5.00;100.00;98799.97;4973918;28;20117;-54
2022/02/06 07:22:44;;;;;;;36.90;16.52;;;;;;;-4.55;100.00;98807.09;4978507;28;20053;-55
2022/02/06 07:25:29;;;;;;;31.63;16.13;;;;;;;-4.35;100.00;98803.25;4978249;28;20173;-58
2022/02/06 07:28:17;;;;;;;37.47;17.60;;;;;;;-4.41;100.00;98803.09;4972006;28;21082;-62
2022/02/06 07:31:01;;;;;;;34.97;15.90;;;;;;;-4.29;100.00;98808.53;4975778;28;20430;-62
2022/02/06 07:33:46;;;;;;;34.97;17.05;;;;;;;-4.83;100.00;98779.69;4974172;28;20137;-54
2022/02/06 07:36:30;;;;;;;36.10;16.80;;;;;;;-4.71;100.00;98758.44;4971104;28;20054;-57
2022/02/06 07:39:15;;;;;;;34.92;16.48;;;;;;;-4.63;100.00;98773.28;4984054;28;20093;-55
2022/02/06 07:42:00;;;;;;;34.83;15.77;;;;;;;-4.45;100.00;98767.66;4976617;28;20811;-58
2022/02/06 07:44:48;;;;;;;34.45;16.40;;;;;;;-3.90;100.00;98805.13;4979588;28;20100;-53
2022/02/06 07:47:33;;;;;;;31.60;15.63;;;;;;;-3.77;100.00;98809.69;4969834;28;20113;-58
2022/02/06 07:50:18;;;;;;;31.38;15.00;;;;;;;-3.93;100.00;98811.91;4986300;28;20041;-60
2022/02/06 07:53:03;;;;;;;30.00;15.02;;;;;;;-3.76;100.00;98808.00;4992361;28;20061;-55
2022/02/06 07:55:50;;;;;;;;;;;;;;;-3.65;100.00;98809.94;4992510;28;20406;-53
2022/02/06 07:58:35;;;;;;;32.40;14.57;;;;;;;-3.94;100.00;98802.41;4990070;28;19944;-63
2022/02/06 08:01:19;;;;;;;31.98;15.27;;;;;;;-3.69;100.00;98809.88;4978544;28;20836;-54
2022/02/06 08:04:07;;;;;;;30.42;15.18;;;;;;;-3.73;100.00;98801.16;4970044;28;20097;-55
2022/02/06 08:06:52;;;;;;;28.90;14.77;;;;;;;-3.43;100.00;98809.53;4959768;28;20054;-56
2022/02/06 08:12:33;;;;;;;27.85;15.15;;;;;;;-3.24;100.00;98803.81;4979570;28;20053;-55
2022/02/06 08:15:18;;;;;;;28.65;15.05;;;;;;;-3.23;100.00;98808.19;4973820;28;20044;-55
2022/02/06 08:18:03;;;;;;;30.88;14.93;;;;;;;-3.12;100.00;98817.03;4971666;28;20058;-62
2022/02/06 08:20:48;;;;;;;32.58;14.93;;;;;;;-3.05;100.00;98807.66;4982529;28;20069;-58
2022/02/06 08:23:33;;;;;;;30.02;14.43;;;;;;;-2.69;100.00;98797.91;4982956;28;20475;-56
2022/02/06 08:26:17;;;;;;;32.20;15.63;;;;;;;-2.40;100.00;98813.06;4977336;28;20108;-57
2022/02/06 08:29:02;;;;;;;31.20;14.38;;;;;;;-1.88;100.00;98807.75;4964921;28;20545;-59
2022/02/06 08:31:47;;;;;;;27.00;13.68;;;;;;;-2.47;100.00;98771.41;4973644;28;20088;-56
2022/02/06 08:34:32;;;;;;;33.08;15.73;;;;;;;-2.76;100.00;98762.31;4984087;28;20093;-60
2022/02/06 08:37:17;;;;;;;27.88;14.75;;;;;;;-2.79;100.00;98783.91;4969413;28;20138;-64
2022/02/06 08:40:12;;;;;;;26.02;14.43;;;;;;;-2.41;100.00;98823.44;4963454;28;20537;-59
2022/02/06 08:42:56;;;;;;;27.85;14.85;;;;;;;-2.37;100.00;98825.22;4969319;28;20057;-60
2022/02/06 08:45:41;;;;;;;30.10;15.48;;;;;;;-2.67;100.00;98816.94;4957135;28;20061;-55
2022/02/06 08:48:26;;;;;;;29.17;14.30;;;;;;;-2.68;100.00;98818.69;4944417;28;20065;-60
2022/02/06 08:51:12;;;;;;;32.40;14.98;;;;;;;-3.11;100.00;98800.63;4985281;28;20108;-63
2022/02/06 08:53:57;;;;;;;30.08;15.00;;;;;;;-2.76;100.00;98804.72;4987872;28;20530;-52
2022/02/06 08:56:42;;;;;;;33.53;15.10;;;;;;;-2.35;100.00;98808.81;4956785;28;20058;-59
2022/02/06 08:59:30;;;;;;;30.90;14.85;;;;;;;-1.73;100.00;98814.88;4977677;28;20053;-59
2022/02/06 09:02:18;;;;;;;26.98;14.40;;;;;;;-2.34;100.00;98775.97;4980130;28;20057;-78
2022/02/06 09:05:04;;;;;;;34.65;15.88;;;;;;;-2.30;100.00;98814.09;4967867;28;20060;-65
2022/02/06 09:07:49;;;;;;;28.88;15.20;;;;;;;-1.83;100.00;98811.28;4973255;28;20134;-63
2022/02/06 09:10:34;;;;;;;27.60;14.40;;;;;;;-1.37;100.00;98816.22;4977087;28;20073;-66
2022/02/06 09:13:20;;;;;;;24.48;13.65;;;;;;;-0.75;100.00;98812.50;4972858;28;20150;-63
2022/02/06 09:16:05;;;;;;;;;;;;;;;-0.09;100.00;98805.22;4985251;28;20046;-65
2022/02/06 09:18:50;;;;;;;25.90;13.80;;;;;;;0.28;100.00;98797.59;4974739;28;20028;-66
2022/02/06 09:21:35;;;;;;;26.27;13.95;;;;;;;0.29;95.35;98802.81;4967424;28;20516;-63
2022/02/06 09:24:22;;;;;;;28.52;14.00;;;;;;;0.33;94.06;98811.50;4972588;28;20109;-69
2022/02/06 09:27:10;;;;;;;25.75;13.82;;;;;;;0.88;93.03;98811.75;4973278;28;20069;-65
2022/02/06 09:29:54;;;;;;;24.48;14.18;;;;;;;0.93;88.83;98804.78;4975957;28;20466;-67
2022/02/06 09:35:42;;;;;;;27.88;13.48;;;;;;;1.32;87.56;98810.06;4982778;28;20145;-63
2022/02/06 09:38:27;;;;;;;29.02;14.13;;;;;;;1.56;87.63;98810.09;4971217;28;20049;-62
2022/02/06 09:41:12;;;;;;;26.10;13.48;;;;;;;1.26;85.42;98799.63;4956036;28;20057;-57
2022/02/06 09:43:58;;;;;;;24.25;13.95;;;;;;;1.77;83.93;98807.47;4969277;28;20069;-61
2022/02/06 09:46:46;;;;;;;26.23;13.98;;;;;;;2.53;80.63;98792.47;4980699;28;20093;-55
2022/02/06 09:49:33;;;;;;;25.60;14.52;;;;;;;2.45;79.00;98792.50;4984039;28;20126;-57
2022/02/06 09:52:27;;;;;;;26.92;13.90;;;;;;;2.64;73.98;98802.00;4984278;28;20137;-59
2022/02/06 09:55:17;;;;;;;28.00;14.25;;;;;;;3.29;75.03;98797.25;4979833;28;20061;-62
2022/02/06 09:58:18;;;;;;;23.30;14.32;;;;;;;4.04;70.11;98795.78;4976700;28;20106;-61
2022/02/06 10:01:09;;;;;;;25.75;15.57;;;;;;;4.51;78.19;98790.91;4974089;28;20558;-63
2022/02/06 10:04:04;;;;;;;26.23;13.98;;;;;;;5.16;78.86;98800.53;4980264;28;20101;-71
2022/02/06 10:06:58;;;;;;;22.83;13.93;;;;;;;5.93;72.20;98802.88;4978760;28;20414;-66
2022/02/06 10:09:49;;;;;;;24.73;14.38;;;;;;;6.45;72.57;98798.38;4970793;28;20217;-68
2022/02/06 10:12:43;;;;;;;26.00;15.30;;;;;;;6.93;61.63;98800.03;4964091;28;20193;-68
2022/02/06 10:15:31;;;;;;;21.10;14.00;;;;;;;7.01;57.13;98784.94;4956938;28;20495;-63
2022/02/06 10:18:16;;;;;;;21.85;14.20;;;;;;;7.19;50.50;98795.06;4985360;28;20186;-64
2022/02/06 10:21:02;;;;;;;25.27;13.95;;;;;;;7.99;46.57;98792.25;4983430;28;20065;-65
2022/02/06 10:24:02;;;;;;;20.83;13.27;;;;;;;8.20;44.74;98785.53;4986408;28;20403;-64
2022/02/06 10:27:34;;;;;;;20.27;14.38;;;;;;;7.88;44.06;98789.00;4984683;28;20053;-63
2022/02/06 10:30:07;;;;;;;24.77;14.43;;;;;;;7.50;44.70;98786.44;4983665;28;20438;-62
2022/02/06 10:32:52;;;;;;;26.27;14.98;;;;;;;5.75;47.30;98782.97;4984799;28;20529;-63
2022/02/06 10:35:38;;;;;;;;;;;;;;;5.53;50.71;98788.59;4980254;28;20097;-63
2022/02/06 10:38:29;;;;;;;23.27;15.50;;;;;;;4.63;55.26;98788.13;4967167;28;19929;-63
2022/02/06 10:41:19;;;;;;;28.33;15.55;;;;;;;4.19;55.86;98795.59;4945507;28;20061;-63
2022/02/06 10:44:09;;;;;;;26.25;15.18;;;;;;;3.39;56.47;98783.22;4983270;28;20077;-65
2022/02/06 10:46:56;;;;;;;27.80;15.93;;;;;;;2.81;62.04;98801.94;4982791;28;20077;-64
2022/02/06 10:49:41;;;;;;;27.23;15.35;;;;;;;2.04;65.03;98789.13;4952494;28;20088;-63
2022/02/06 10:52:27;;;;;;;31.75;15.82;;;;;;;1.08;70.24;98762.19;4985395;28;20049;-64
2022/02/06 10:55:19;;;;;;;27.35;14.57;;;;;;;1.31;74.77;98797.03;4984659;28;20419;-66
2022/02/06 10:58:05;;;;;;;27.33;15.10;;;;;;;1.06;76.60;98783.06;4972991;28;20077;-67
2022/02/06 11:00:51;;;;;;;25.58;15.02;;;;;;;1.10;77.57;98786.56;4979814;28;20138;-62
2022/02/06 11:03:39;;;;;;;26.38;14.80;;;;;;;1.17;78.50;98794.41;4979026;28;20101;-65
2022/02/06 11:06:42;;;;;;;25.73;14.65;;;;;;;1.18;79.71;98784.84;4987041;28;20513;-63
2022/02/06 11:09:29;;;;;;;26.67;14.77;;;;;;;0.34;81.10;98780.25;4974200;28;20057;-63
2022/02/06 11:12:22;;;;;;;24.50;13.75;;;;;;;0.65;83.16;98791.66;4968373;28;20109;-65
2022/02/06 11:15:38;;;;;;;30.00;15.63;;;;;;;0.97;83.51;98785.66;4983286;28;21627;-62
2022/02/06 11:18:32;;;;;;;25.13;13.75;;;;;;;0.83;83.81;98778.69;4983469;28;20096;-63
2022/02/06 11:21:28;;;;;;;24.13;13.90;;;;;;;0.74;83.64;98786.50;4969341;28;20061;-63
2022/02/06 11:24:21;;;;;;;31.55;15.23;;;;;;;0.91;85.03;98793.47;4988425;28;20053;-63
2022/02/06 11:27:07;;;;;;;32.63;15.02;;;;;;;0.66;84.99;98791.66;4955214;28;20078;-65
2022/02/06 11:29:57;;;;;;;29.25;14.65;;;;;;;-0.03;87.57;98783.53;4959405;28;20077;-62
2022/02/06 11:32:42;;;;;;;26.55;14.73;;;;;;;0.11;89.96;98794.03;4981049;28;20090;-66
2022/02/06 11:35:31;;;;;;;27.45;14.77;;;;;;;0.27;90.57;98808.88;4983614;28;20085;-64
2022/02/06 11:45:19;;;;;;;25.65;13.48;;;;;;;-0.41;98.70;98805.84;4989340;28;20048;-63
2022/02/06 11:48:08;;;;;;;29.63;14.05;;;;;;;-0.26;98.37;98783.41;4982099;28;20171;-62
2022/02/06 11:50:56;;;;;;;30.67;14.18;;;;;;;-0.26;97.09;98787.72;4971718;28;20050;-63
2022/02/06 11:53:42;;;;;;;29.58;14.65;;;;;;;-0.21;98.13;98788.63;4981989;28;20049;-63
2022/02/06 11:56:34;;;;;;;42.42;21.45;;;;;;;-0.02;97.60;98790.47;4970178;28;20896;-63
2022/02/06 11:59:18;;;;;;;31.48;15.30;;;;;;;-0.35;98.55;98795.47;4992746;28;20049;-63
2022/02/06 12:02:28;;;;;;;30.55;14.80;;;;;;;-0.13;99.85;98793.03;4986563;28;20053;-59
2022/02/06 12:05:28;;;;;;;26.70;14.38;;;;;;;-0.15;99.95;98794.72;4988990;28;20065;-62
2022/02/06 12:08:13;;;;;;;27.27;14.38;;;;;;;0.19;99.36;98811.44;4979973;28;20460;-62
2022/02/06 12:11:01;;;;;;;28.30;14.43;;;;;;;0.27;98.64;98801.06;4973826;28;20072;-62
2022/02/06 12:14:06;;;;;;;27.98;13.95;;;;;;;0.30;97.80;98796.72;4956924;28;20081;-63
2022/02/06 12:17:35;;;;;;;29.60;15.23;;;;;;;0.37;98.68;98793.28;4976441;28;20556;-62
2022/02/06 12:20:22;;;;;;;25.70;13.45;;;;;;;0.29;97.94;98801.94;4953707;28;20057;-64
2022/02/06 12:23:38;;;;;;;29.73;14.90;;;;;;;0.05;99.51;98808.75;4971927;28;20609;-63
2022/02/06 12:29:22;;;;;;;28.35;14.90;;;;;;;-0.16;100.00;98798.22;4973151;28;20402;-65
2022/02/06 12:32:08;;;;;;;31.52;15.00;;;;;;;-0.35;100.00;98798.94;4956048;28;20053;-65
2022/02/06 12:38:06;;;;;;;34.63;15.30;;;;;;;-0.54;100.00;98789.28;4947757;28;19929;-63
2022/02/06 12:40:52;;;;;;;33.05;15.88;;;;;;;-0.49;100.00;98791.88;4940610;28;20160;-63
2022/02/06 12:43:37;;;;;;;30.13;14.25;;;;;;;-0.68;100.00;98790.00;4957950;28;20042;-64
2022/02/06 12:46:26;;;;;;;;;;;;;;;-0.68;100.00;98795.19;4953615;28;20109;-64
2022/02/06 12:49:20;;;;;;;27.02;13.90;;;;;;;-1.14;100.00;98795.66;4956963;28;20013;-64
2022/02/06 12:52:07;;;;;;;28.40;13.90;;;;;;;-1.12;100.00;98805.22;4949995;28;20070;-63
2022/02/06 12:54:52;;;;;;;30.20;15.05;;;;;;;-1.29;100.00;98808.47;4965703;28;20049;-63
2022/02/06 12:57:51;;;;;;;30.13;14.02;;;;;;;-1.25;100.00;98808.53;4939941;28;20054;-64
2022/02/06 13:00:57;;;;;;;29.77;14.02;;;;;;;-1.65;100.00;98813.25;4946857;29;20094;-64
2022/02/06 13:03:43;;;;;;;29.98;14.98;;;;;;;-1.74;100.00;98821.78;4944290;28;20062;-64
2022/02/06 13:06:35;;;;;;;32.47;15.25;;;;;;;-1.90;100.00;98821.59;4940789;29;20142;-69
2022/02/06 13:09:28;;;;;;;31.25;14.75;;;;;;;-1.96;100.00;98818.91;4921399;28;20081;-64
2022/02/06 13:18:20;;;;;;;32.93;15.00;;;;;;;-1.68;100.00;98813.19;4964542;28;20057;-63
2022/02/06 13:24:19;;;;;;;38.20;16.75;;;;;;;-1.82;100.00;98818.22;4984397;28;20073;-64
2022/02/06 13:35:53;;;;;;;32.30;14.43;;;;;;;-1.90;100.00;98827.63;4984276;28;20518;-67
2022/02/06 13:38:39;;;;;;;33.70;14.88;;;;;;;-2.05;100.00;98821.38;4974054;28;20064;-59
2022/02/06 13:41:31;;;;;;;35.47;15.77;;;;;;;-1.90;100.00;98819.84;4973477;28;20053;-62
2022/02/06 13:44:24;;;;;;;32.70;15.07;;;;;;;-2.08;100.00;98824.78;4964370;28;20110;-65
2022/02/06 13:47:15;;;;;;;30.05;14.27;;;;;;;-2.17;100.00;98824.63;4980345;28;20069;-61
2022/02/06 13:50:10;;;;;;;29.70;13.88;;;;;;;-2.01;100.00;98826.59;4966498;28;20436;-61
2022/02/06 13:53:09;;;;;;;30.52;15.13;;;;;;;-2.43;100.00;98781.00;4983667;28;20088;-63
2022/02/06 13:56:03;;;;;;;30.20;14.35;;;;;;;-2.37;100.00;98831.25;4959260;28;20525;-67
2022/02/06 13:59:21;;;;;;;32.47;15.48;;;;;;;-2.16;100.00;98829.00;4972264;28;20603;-62
2022/02/06 14:02:09;;;;;;;33.70;14.93;;;;;;;-2.72;100.00;98814.28;4896045;29;20619;-63
2022/02/06 14:05:04;;;;;;;33.83;14.93;;;;;;;-2.58;100.00;98830.94;4895718;29;20492;-62
2022/02/06 14:08:02;;;;;;;30.20;15.15;;;;;;;-2.53;100.00;98831.00;4912628;29;20098;-63
2022/02/06 14:11:06;;;;;;;32.03;14.50;;;;;;;-2.63;100.00;98826.50;4914719;29;20121;-62
2022/02/06 14:13:52;;;;;;;33.78;15.57;;;;;;;-2.73;100.00;98833.25;4906291;29;20050;-62
2022/02/06 14:16:47;;;;;;;34.90;14.57;;;;;;;-2.70;100.00;98841.09;4884183;29;20108;-65
2022/02/06 14:19:35;;;;;;;31.58;15.23;;;;;;;-2.58;100.00;98837.81;4894528;29;20042;-63
2022/02/06 14:22:29;;;;;;;34.42;14.40;;;;;;;-2.31;100.00;98856.44;4888610;29;20059;-63
2022/02/06 14:25:27;;;;;;;32.33;15.18;;;;;;;-2.15;100.00;98856.72;4913154;29;20468;-61
2022/02/06 14:28:20;;;;;;;36.85;16.65;;;;;;;-2.27;100.00;98848.72;4898120;29;20136;-63
2022/02/06 14:31:25;;;;;;;33.70;15.70;;;;;;;-2.15;100.00;98851.50;4892808;29;20083;-63
2022/02/06 14:34:19;;;;;;;33.45;15.10;;;;;;;-2.18;100.00;98855.81;4907722;29;20326;-63
2022/02/06 14:37:12;;;;;;;35.47;15.90;;;;;;;-2.24;100.00;98851.38;4901683;28;20653;-63
2022/02/06 14:40:11;;;;;;;37.40;16.33;;;;;;;-2.37;100.00;98849.44;4965936;28;20517;-64
2022/02/06 14:43:11;;;;;;;36.60;15.18;;;;;;;-2.32;100.00;98853.00;4981185;28;20125;-69
2022/02/06 14:45:56;;;;;;;36.20;15.57;;;;;;;-2.34;100.00;98856.41;4979679;28;20186;-66
2022/02/06 14:48:41;;;;;;;36.25;16.02;;;;;;;-2.42;100.00;98853.69;4972903;28;20461;-64
2022/02/06 14:51:27;;;;;;;34.15;16.10;;;;;;;-2.23;100.00;98857.44;4985297;28;20088;-67
2022/02/06 14:54:20;;;;;;;35.67;15.30;;;;;;;-2.57;100.00;98860.34;4954128;28;20066;-63
2022/02/06 14:57:05;;;;;;;35.22;16.67;;;;;;;-2.37;100.00;98864.16;4983708;28;20104;-64
2022/02/06 14:59:51;;;;;;;38.38;15.70;;;;;;;-2.44;100.00;98865.78;4986547;28;20065;-64
2022/02/06 15:02:36;;;;;;;36.50;16.90;;;;;;;-2.37;100.00;98857.22;4981025;28;20049;-63
2022/02/06 15:05:21;;;;;;;36.50;15.63;;;;;;;-2.20;100.00;98866.16;4957761;28;20092;-65
2022/02/06 15:08:09;;;;;;;38.88;17.27;;;;;;;-2.29;100.00;98875.53;4969691;28;20037;-63
2022/02/06 15:10:54;;;;;;;38.55;16.02;;;;;;;-2.54;100.00;98876.81;4973379;28;20056;-64
2022/02/06 15:13:39;;;;;;;36.35;16.27;;;;;;;-2.53;100.00;98860.41;4971558;28;20175;-63
2022/02/06 15:16:27;;;;;;;37.72;16.70;;;;;;;-2.35;100.00;98876.28;4963811;28;20075;-64
2022/02/06 15:19:15;;;;;;;38.92;17.10;;;;;;;-2.29;100.00;98884.16;4968201;28;20165;-64
2022/02/06 15:22:00;;;;;;;35.05;16.25;;;;;;;-2.37;100.00;98874.53;4970444;28;20057;-64